Aviation Digital Data Service (ADDS)

Output produced by TAFs form (0439 UTC 28 July 2017)
found at http://www.aviationweather.gov/adds/tafs/
 
METAR text: ZSPD 280430Z 14006MPS 9999 SCT023 35/25 Q1007 NOSIG
Conditions at: ZSPD (SHANGHAI/PUDONG , CN) observed 0430 UTC 28 July 2017
Temperature: 35.0°C (95°F)
Dewpoint: 25.0°C (77°F) [RH = 56%]
Pressure (altimeter): 29.73 inches Hg (1007.0 mb)
Winds: from the SE (140 degrees) at 14 MPH (12 knots; 6.2 m/s)
Visibility: 6 or more miles (10+ km)
Ceiling: at least 12,000 feet AGL
Clouds: scattered clouds at 2300 feet AGL
Weather: no significant weather observed at this time

Forecast for: ZSPD (SHANGHAI/PUDONG , CN)
Text: TAF ZSPD 280314Z 2806/2906 12004MPS 6000 SCT020 TX36/2807Z TN27/2820Z
Forecast period: 0600 to 2200 UTC 28 July 2017
Forecast type: FROM: standard forecast or significant change
Winds: from the ESE (120 degrees) at 9 MPH (8 knots; 4.2 m/s)
Visibility: 4 miles (6 km)
Clouds: scattered clouds at 2000 feet AGL
Weather: no significant weather forecast for this period
Text: BECMG 2822/2824 07004MPS
Forecast period: 2200 UTC 28 July 2017 to 0600 UTC 29 July 2017
Forecast type: BECOMING: Conditions expected to become as follows by 0000 UTC 29 July 2017
Winds: from the ENE (70 degrees) at 9 MPH (8 knots; 4.2 m/s)
Visibility: 4 miles (6 km)
Clouds: scattered clouds at 2000 feet AGL
Weather: no significant weather forecast for this period